createdAt,value
2022-11-14T00:01:27.219Z,99.90
2022-11-14T00:03:55.255Z,99.90
2022-11-14T00:06:23.284Z,99.90
2022-11-14T00:08:52.720Z,99.90
2022-11-14T00:11:20.853Z,99.90
2022-11-14T00:13:48.873Z,99.90
2022-11-14T00:16:16.869Z,99.90
2022-11-14T00:18:44.943Z,99.90
2022-11-14T00:21:12.998Z,99.90
2022-11-14T00:23:41.119Z,99.90
2022-11-14T00:26:10.555Z,99.90
2022-11-14T00:28:38.601Z,99.90
2022-11-14T00:31:07.036Z,99.90
2022-11-14T00:33:35.022Z,99.90
2022-11-14T00:36:03.058Z,99.90
2022-11-14T00:38:31.445Z,99.90
2022-11-14T00:40:59.727Z,99.90
2022-11-14T00:43:29.240Z,99.90
2022-11-14T00:45:57.363Z,99.90
2022-11-14T00:48:25.389Z,99.90
2022-11-14T00:50:53.452Z,99.90
2022-11-14T00:53:21.472Z,99.90
2022-11-14T00:55:49.479Z,99.90
2022-11-14T00:58:17.556Z,99.90
2022-11-14T01:00:47.100Z,99.90
2022-11-14T01:03:15.254Z,99.90
2022-11-14T01:05:43.551Z,99.90
2022-11-14T01:08:11.616Z,99.90
2022-11-14T01:10:41.798Z,99.90
2022-11-14T01:13:09.982Z,99.90
2022-11-14T01:15:41.215Z,99.90
2022-11-14T01:18:11.643Z,99.90
2022-11-14T01:20:40.558Z,99.90
2022-11-14T01:23:09.189Z,99.90
2022-11-14T01:25:38.104Z,99.90
2022-11-14T01:28:08.254Z,99.90
2022-11-14T01:30:36.446Z,99.90
2022-11-14T01:33:05.126Z,99.90
2022-11-14T01:35:36.143Z,99.90
2022-11-14T01:38:05.184Z,99.90
2022-11-14T01:40:33.765Z,99.90
2022-11-14T01:43:27.111Z,99.90
2022-11-14T01:46:01.718Z,99.90
2022-11-14T01:48:36.350Z,99.90
2022-11-14T01:51:22.665Z,99.90
2022-11-14T01:53:54.471Z,99.90
2022-11-14T01:56:28.043Z,99.90
2022-11-14T01:59:01.557Z,99.90
2022-11-14T02:01:33.530Z,99.90
2022-11-14T02:04:05.366Z,99.90
2022-11-14T02:06:37.576Z,99.90
2022-11-14T02:09:07.686Z,99.90
2022-11-14T02:11:39.249Z,99.90
2022-11-14T02:14:07.909Z,99.90
2022-11-14T02:16:36.196Z,99.90
2022-11-14T02:19:04.170Z,99.90
2022-11-14T02:21:33.682Z,99.90
2022-11-14T02:24:01.747Z,99.90
2022-11-14T02:26:34.290Z,99.90
2022-11-14T02:29:05.725Z,99.90
2022-11-14T02:31:33.964Z,99.90
2022-11-14T02:34:02.265Z,99.90
2022-11-14T02:36:30.275Z,99.90
2022-11-14T02:38:59.617Z,99.90
2022-11-14T02:41:27.597Z,99.90
2022-11-14T02:43:55.607Z,99.90
2022-11-14T02:46:23.685Z,99.90
2022-11-14T02:48:51.789Z,99.90
2022-11-14T02:51:19.909Z,99.90
2022-11-14T02:53:47.934Z,99.90
2022-11-14T02:56:17.329Z,99.90
2022-11-14T02:58:45.399Z,99.90
2022-11-14T03:01:20.919Z,99.90
2022-11-14T03:03:49.603Z,99.90
2022-11-14T03:06:17.709Z,99.90
2022-11-14T03:08:45.717Z,99.90
2022-11-14T03:11:13.728Z,99.90
2022-11-14T03:13:43.173Z,99.90
2022-11-14T03:16:14.092Z,99.90
2022-11-14T03:18:42.609Z,99.90
2022-11-14T03:21:12.333Z,99.90
2022-11-14T03:23:40.327Z,99.90
2022-11-14T03:26:10.233Z,99.90
2022-11-14T03:28:39.608Z,99.90
2022-11-14T03:31:11.392Z,99.90
2022-11-14T03:33:39.493Z,99.90
2022-11-14T03:36:08.608Z,99.90
2022-11-14T03:38:37.474Z,99.90
2022-11-14T03:41:05.811Z,99.90
2022-11-14T03:43:35.516Z,99.90
2022-11-14T03:46:04.459Z,99.90
2022-11-14T03:48:33.833Z,99.90
2022-11-14T03:51:02.069Z,99.90
2022-11-14T03:53:30.079Z,99.90
2022-11-14T03:55:58.068Z,99.90
2022-11-14T03:58:26.197Z,99.90
2022-11-14T04:00:55.879Z,99.90
2022-11-14T04:03:23.951Z,99.90
2022-11-14T04:05:53.387Z,99.90
2022-11-14T04:08:21.497Z,99.90
2022-11-14T04:10:50.083Z,99.90
2022-11-14T04:13:18.184Z,99.90
2022-11-14T04:15:46.233Z,99.90
2022-11-14T04:18:14.402Z,99.90
2022-11-14T04:20:42.423Z,99.90
2022-11-14T04:23:11.808Z,99.90
2022-11-14T04:25:39.824Z,99.90
2022-11-14T04:28:07.894Z,99.90
2022-11-14T04:30:35.942Z,99.90
2022-11-14T04:33:03.959Z,99.90
2022-11-14T04:35:32.106Z,99.90
2022-11-14T04:38:00.106Z,99.90
2022-11-14T04:40:29.555Z,99.90
2022-11-14T04:42:57.589Z,99.90
2022-11-14T04:45:25.703Z,99.90
2022-11-14T04:47:53.794Z,99.90
2022-11-14T04:50:21.775Z,99.90
2022-11-14T04:52:53.616Z,99.90
2022-11-14T04:55:21.659Z,99.90
2022-11-14T04:57:54.991Z,99.90
2022-11-14T05:00:23.147Z,99.90
2022-11-14T05:02:51.340Z,99.90
2022-11-14T05:05:19.362Z,99.90
2022-11-14T05:07:47.388Z,99.90
2022-11-14T05:10:15.639Z,99.90
2022-11-14T05:12:43.641Z,99.90
2022-11-14T05:15:13.235Z,99.90
2022-11-14T05:17:41.237Z,99.90
2022-11-14T05:20:10.329Z,99.90
2022-11-14T05:22:38.338Z,99.90
2022-11-14T05:25:07.157Z,99.90
2022-11-14T05:27:35.216Z,99.90
2022-11-14T05:30:03.198Z,99.90
2022-11-14T05:32:32.575Z,99.90
2022-11-14T05:35:00.614Z,99.90
2022-11-14T05:37:28.671Z,99.90
2022-11-14T05:39:56.771Z,99.90
2022-11-14T05:42:24.806Z,99.90
2022-11-14T05:44:52.811Z,99.90
2022-11-14T05:47:21.000Z,99.90
2022-11-14T05:49:50.451Z,99.90
2022-11-14T05:52:18.950Z,99.90
2022-11-14T05:54:46.935Z,99.90
2022-11-14T05:57:14.993Z,99.90
2022-11-14T05:59:43.016Z,99.90
2022-11-14T06:02:11.099Z,99.90
2022-11-14T06:04:39.304Z,99.90
2022-11-14T06:07:08.756Z,99.90
2022-11-14T06:09:36.792Z,99.90
2022-11-14T06:12:07.780Z,99.90
2022-11-14T06:14:35.812Z,99.90
2022-11-14T06:17:03.841Z,99.90
2022-11-14T06:19:31.915Z,99.90
2022-11-14T06:21:59.951Z,99.90
2022-11-14T06:24:29.582Z,99.90
2022-11-14T06:26:57.608Z,99.90
2022-11-14T06:29:35.218Z,99.90
2022-11-14T06:32:03.608Z,99.90
2022-11-14T06:34:31.616Z,99.90
2022-11-14T06:36:59.692Z,99.90
2022-11-14T06:39:29.082Z,99.90
2022-11-14T06:41:57.157Z,99.90
2022-11-14T06:44:29.690Z,99.90
2022-11-14T06:46:59.196Z,99.90
2022-11-14T06:49:27.888Z,99.90
2022-11-14T06:51:56.303Z,99.90
2022-11-14T06:54:24.356Z,99.90
2022-11-14T06:56:53.719Z,99.90
2022-11-14T06:59:21.812Z,99.90
2022-11-14T07:01:49.716Z,99.90
2022-11-14T07:04:17.980Z,99.90
2022-11-14T07:06:46.058Z,99.90
2022-11-14T07:09:14.296Z,99.90
2022-11-14T07:11:42.299Z,99.90
2022-11-14T07:14:11.780Z,99.90
2022-11-14T07:16:40.055Z,99.90
2022-11-14T07:19:10.359Z,99.90
2022-11-14T07:21:38.794Z,99.90
2022-11-14T07:24:07.332Z,99.90
2022-11-14T07:26:35.559Z,99.90
2022-11-14T07:29:03.613Z,99.90
2022-11-14T07:31:33.086Z,99.90
2022-11-14T07:34:03.333Z,99.90
2022-11-14T07:36:31.591Z,99.90
2022-11-14T07:38:59.663Z,99.90
2022-11-14T07:41:28.077Z,99.90
2022-11-14T07:43:57.467Z,99.90
2022-11-14T07:46:25.562Z,99.90
2022-11-14T07:48:55.905Z,99.90
2022-11-14T07:51:23.928Z,99.90
2022-11-14T07:53:54.294Z,99.90
2022-11-14T07:56:22.406Z,99.90
2022-11-14T07:58:50.458Z,99.90
2022-11-14T08:01:18.727Z,99.90
2022-11-14T08:03:46.971Z,99.90
2022-11-14T08:06:17.620Z,99.90
2022-11-14T08:08:46.008Z,99.90
2022-11-14T08:11:22.996Z,99.90
2022-11-14T08:14:02.104Z,99.90
2022-11-14T08:16:30.139Z,99.90
2022-11-14T08:18:58.173Z,99.90
2022-11-14T08:21:27.711Z,99.90
2022-11-14T08:23:55.781Z,99.90
2022-11-14T08:26:23.946Z,99.90
2022-11-14T08:28:55.161Z,99.90
2022-11-14T08:31:23.909Z,99.90
2022-11-14T08:33:53.387Z,99.90
2022-11-14T08:36:21.656Z,99.90
2022-11-14T08:38:51.744Z,99.90
2022-11-14T08:41:20.585Z,99.90
2022-11-14T08:43:48.754Z,99.90
2022-11-14T08:46:16.860Z,99.90
2022-11-14T08:48:44.938Z,99.90
2022-11-14T08:51:13.086Z,99.90
2022-11-14T08:53:41.240Z,98.80
2022-11-14T08:56:12.249Z,97.30
2022-11-14T08:58:40.387Z,96.40
2022-11-14T09:01:08.848Z,94.80
2022-11-14T09:03:37.092Z,94.30
2022-11-14T09:06:05.542Z,93.20
2022-11-14T09:08:33.890Z,92.60
2022-11-14T09:11:05.182Z,91.80
2022-11-14T09:13:35.526Z,90.50
2022-11-14T09:16:03.685Z,89.70
2022-11-14T09:18:32.582Z,88.70
2022-11-14T09:21:02.229Z,86.20
2022-11-14T09:23:30.904Z,84.80
2022-11-14T09:25:59.268Z,85.30
2022-11-14T09:28:27.428Z,85.70
2022-11-14T09:31:01.452Z,86.30
2022-11-14T09:33:30.084Z,87.50
2022-11-14T09:35:59.080Z,87.60
2022-11-14T09:38:27.687Z,87.20
2022-11-14T09:41:11.669Z,86.60
2022-11-14T09:43:58.256Z,88.10
2022-11-14T09:46:33.124Z,89.00
2022-11-14T09:49:01.375Z,89.70
2022-11-14T09:51:34.437Z,90.20
2022-11-14T09:54:11.864Z,90.50
2022-11-14T09:56:39.877Z,90.50
2022-11-14T09:59:11.903Z,91.00
2022-11-14T10:01:50.150Z,91.00
2022-11-14T10:04:25.775Z,91.10
2022-11-14T10:07:04.797Z,90.70
2022-11-14T10:09:53.906Z,91.50
2022-11-14T10:12:26.222Z,91.80
2022-11-14T10:15:06.476Z,92.60
2022-11-14T10:17:59.321Z,93.50
2022-11-14T10:20:34.040Z,93.90
2022-11-14T10:23:27.406Z,94.60
2022-11-14T10:26:02.417Z,95.30
2022-11-14T10:28:49.880Z,95.40
2022-11-14T10:31:29.850Z,95.60
2022-11-14T10:34:06.257Z,95.60
2022-11-14T10:36:55.511Z,95.90
2022-11-14T10:39:28.046Z,96.00
2022-11-14T10:42:04.524Z,95.90
2022-11-14T10:44:39.725Z,95.90
2022-11-14T10:47:13.904Z,95.90
2022-11-14T10:49:46.121Z,96.30
2022-11-14T10:52:16.183Z,96.20
2022-11-14T10:54:49.574Z,95.80
2022-11-14T10:57:19.313Z,95.70
2022-11-14T10:59:47.428Z,96.10
2022-11-14T11:02:15.994Z,96.70
2022-11-14T11:04:46.773Z,96.50
2022-11-14T11:07:41.792Z,96.80
2022-11-14T11:10:40.092Z,96.60
2022-11-14T11:13:12.216Z,97.10
2022-11-14T11:15:42.497Z,97.00
2022-11-14T11:18:28.049Z,97.10
2022-11-14T11:21:10.021Z,97.30
2022-11-14T11:23:48.600Z,97.20
2022-11-14T11:26:25.758Z,97.70
2022-11-14T11:29:06.387Z,97.80
2022-11-14T11:31:52.134Z,97.80
2022-11-14T11:34:25.559Z,97.70
2022-11-14T11:36:59.973Z,97.90
2022-11-14T11:39:31.105Z,97.70
2022-11-14T11:42:11.233Z,98.20
2022-11-14T11:44:45.384Z,98.20
2022-11-14T11:47:16.557Z,98.30
2022-11-14T11:49:52.881Z,98.10
2022-11-14T11:52:32.191Z,98.20
2022-11-14T11:55:06.123Z,98.40
2022-11-14T11:57:38.621Z,98.40
2022-11-14T12:00:09.095Z,98.00
2022-11-14T12:02:48.183Z,98.30
2022-11-14T12:05:19.964Z,98.70
2022-11-14T12:07:56.132Z,98.70
2022-11-14T12:10:27.591Z,98.90
2022-11-14T12:13:37.501Z,98.40
2022-11-14T12:16:23.857Z,98.40
2022-11-14T12:19:18.940Z,98.80
2022-11-14T12:22:19.485Z,98.90
2022-11-14T12:25:21.894Z,99.10
2022-11-14T12:28:04.269Z,98.80
2022-11-14T12:30:33.872Z,98.90
2022-11-14T12:33:09.549Z,98.70
2022-11-14T12:35:39.448Z,99.10
2022-11-14T12:38:19.919Z,98.70
2022-11-14T12:40:55.043Z,98.80
2022-11-14T12:43:37.367Z,99.20
2022-11-14T12:46:11.649Z,99.30
2022-11-14T12:48:48.720Z,99.10
2022-11-14T12:51:51.618Z,99.10
2022-11-14T12:54:44.028Z,99.20
2022-11-14T12:57:42.569Z,99.30
2022-11-14T13:00:11.300Z,99.30
2022-11-14T13:03:13.623Z,99.30
2022-11-14T13:05:53.999Z,99.40
2022-11-14T13:09:02.494Z,99.40
2022-11-14T13:11:57.978Z,99.70
2022-11-14T13:14:51.022Z,99.60
2022-11-14T13:17:44.741Z,99.40
2022-11-14T13:20:46.659Z,99.60
2022-11-14T13:23:48.211Z,99.70
2022-11-14T13:26:45.477Z,99.80
2022-11-14T13:29:59.985Z,99.90
2022-11-14T13:32:56.374Z,99.90
2022-11-14T13:35:45.769Z,99.90
2022-11-14T13:38:45.511Z,99.90
2022-11-14T13:41:47.773Z,99.90
2022-11-14T13:44:44.910Z,99.90
2022-11-14T13:47:30.254Z,99.90
2022-11-14T13:50:03.871Z,99.90
2022-11-14T13:52:35.171Z,99.90
2022-11-14T13:55:04.112Z,99.90
2022-11-14T13:57:45.214Z,99.90
2022-11-14T14:00:20.463Z,99.90
2022-11-14T14:03:12.546Z,99.90
2022-11-14T14:06:05.137Z,99.90
2022-11-14T14:09:04.595Z,99.90
2022-11-14T14:11:48.276Z,99.90
2022-11-14T14:14:49.089Z,99.90
2022-11-14T14:17:21.761Z,99.90
2022-11-14T14:20:01.964Z,99.90
2022-11-14T14:22:38.683Z,99.90
2022-11-14T14:25:17.051Z,99.90
2022-11-14T14:27:56.144Z,99.90
2022-11-14T14:30:24.522Z,99.90
2022-11-14T14:33:15.362Z,99.90
2022-11-14T14:35:52.367Z,99.90
2022-11-14T14:38:27.022Z,99.90
2022-11-14T14:40:56.766Z,99.90
2022-11-14T14:43:31.665Z,99.90
2022-11-14T14:46:00.089Z,99.90
2022-11-14T14:48:31.237Z,99.90
2022-11-14T14:51:02.931Z,99.90
2022-11-14T14:53:34.402Z,99.90
2022-11-14T14:56:04.550Z,99.90
2022-11-14T14:58:34.905Z,99.90
2022-11-14T15:01:06.235Z,99.90
2022-11-14T15:03:38.172Z,99.90
2022-11-14T15:06:12.983Z,99.90
2022-11-14T15:08:42.786Z,99.90
2022-11-14T15:11:10.974Z,99.90
2022-11-14T15:13:40.023Z,99.90
2022-11-14T15:16:09.493Z,99.90
2022-11-14T15:18:40.015Z,99.90
2022-11-14T15:21:10.173Z,99.90
2022-11-14T15:23:39.275Z,99.90
2022-11-14T15:26:15.578Z,99.90
2022-11-14T15:28:44.554Z,99.90
2022-11-14T15:31:21.101Z,99.90
2022-11-14T15:34:03.552Z,99.90
2022-11-14T15:36:31.763Z,99.90
2022-11-14T15:39:01.263Z,99.90
2022-11-14T15:41:32.549Z,99.90
2022-11-14T15:44:05.303Z,99.90
2022-11-14T15:46:41.772Z,99.90
2022-11-14T15:49:18.356Z,99.90
2022-11-14T15:51:48.721Z,99.90
2022-11-14T15:54:25.585Z,99.90
2022-11-14T15:56:56.895Z,99.90
2022-11-14T15:59:26.413Z,99.90
2022-11-14T16:01:58.767Z,99.90
2022-11-14T16:04:32.013Z,99.90
2022-11-14T16:07:00.445Z,99.90
2022-11-14T16:09:30.578Z,99.90
2022-11-14T16:12:00.112Z,99.90
2022-11-14T16:14:28.173Z,99.90
2022-11-14T16:16:56.376Z,99.90
2022-11-14T16:19:24.476Z,99.90
2022-11-14T16:21:52.771Z,99.90
2022-11-14T16:24:23.175Z,99.90
2022-11-14T16:26:51.730Z,99.90
2022-11-14T16:29:21.480Z,99.90
2022-11-14T16:31:51.650Z,99.90
2022-11-14T16:34:22.353Z,99.90
2022-11-14T16:36:52.075Z,99.90
2022-11-14T16:39:20.504Z,99.90
2022-11-14T16:41:48.584Z,99.90
2022-11-14T16:44:18.706Z,99.90
2022-11-14T16:46:48.440Z,99.90
2022-11-14T16:49:19.685Z,99.90
2022-11-14T16:51:50.688Z,99.90
2022-11-14T16:54:20.336Z,99.90
2022-11-14T16:56:49.026Z,99.90
2022-11-14T16:59:17.402Z,99.90
2022-11-14T17:01:48.856Z,99.90
2022-11-14T17:04:18.497Z,99.90
2022-11-14T17:06:46.845Z,99.90
2022-11-14T17:09:15.403Z,99.90
2022-11-14T17:11:44.695Z,99.90
2022-11-14T17:14:13.037Z,99.90
2022-11-14T17:16:41.129Z,99.90
2022-11-14T17:19:09.348Z,99.90
2022-11-14T17:21:39.016Z,99.90
2022-11-14T17:24:07.743Z,99.90
2022-11-14T17:26:36.652Z,99.90
2022-11-14T17:29:05.336Z,99.90
2022-11-14T17:31:37.579Z,99.90
2022-11-14T17:34:06.968Z,99.90
2022-11-14T17:36:35.467Z,99.90
2022-11-14T17:39:05.181Z,99.90
2022-11-14T17:41:34.012Z,99.90
2022-11-14T17:44:03.555Z,99.90
2022-11-14T17:46:32.631Z,99.90
2022-11-14T17:49:01.302Z,99.90
2022-11-14T17:51:29.762Z,99.90
2022-11-14T17:53:58.096Z,99.90
2022-11-14T17:56:28.057Z,99.90
2022-11-14T17:58:56.219Z,99.90
2022-11-14T18:01:26.124Z,99.90
2022-11-14T18:03:54.450Z,99.90
2022-11-14T18:06:24.255Z,99.90
2022-11-14T18:08:52.400Z,99.90
2022-11-14T18:11:20.670Z,99.90
2022-11-14T18:13:54.455Z,99.90
2022-11-14T18:16:26.353Z,99.90
2022-11-14T18:18:59.574Z,99.90
2022-11-14T18:21:28.046Z,99.90
2022-11-14T18:23:57.596Z,99.90
2022-11-14T18:26:28.357Z,99.90
2022-11-14T18:28:58.829Z,99.90
2022-11-14T18:31:27.182Z,99.90
2022-11-14T18:33:56.029Z,99.90
2022-11-14T18:36:24.921Z,99.90
2022-11-14T18:38:53.099Z,99.90
2022-11-14T18:41:22.435Z,99.90
2022-11-14T18:43:54.646Z,99.90
2022-11-14T18:46:25.901Z,99.90
2022-11-14T18:48:57.083Z,99.90
2022-11-14T18:51:27.688Z,99.90
2022-11-14T18:53:59.298Z,99.90
2022-11-14T18:56:28.142Z,99.90
2022-11-14T18:58:57.829Z,99.90
2022-11-14T19:01:32.154Z,99.90
2022-11-14T19:04:01.586Z,99.90
2022-11-14T19:06:31.774Z,99.90
2022-11-14T19:09:01.074Z,99.90
2022-11-14T19:11:46.887Z,99.90
2022-11-14T19:14:15.036Z,99.90
2022-11-14T19:16:44.507Z,99.90
2022-11-14T19:19:12.800Z,99.90
2022-11-14T19:21:41.297Z,99.90
2022-11-14T19:24:10.438Z,99.90
2022-11-14T19:26:38.676Z,99.90
2022-11-14T19:29:10.370Z,99.90
2022-11-14T19:31:38.660Z,99.90
2022-11-14T19:34:08.301Z,99.90
2022-11-14T19:37:06.476Z,99.90
2022-11-14T19:39:24.887Z,99.90
2022-11-14T19:41:53.270Z,99.90
2022-11-14T19:44:21.509Z,99.90
2022-11-14T19:46:49.703Z,99.90
2022-11-14T19:49:19.295Z,99.90
2022-11-14T19:51:47.436Z,99.90
2022-11-14T19:54:15.713Z,99.90
2022-11-14T19:56:44.064Z,99.90
2022-11-14T19:59:15.561Z,99.90
2022-11-14T20:01:46.067Z,99.90
2022-11-14T20:04:15.294Z,99.90
2022-11-14T20:06:44.867Z,99.90
2022-11-14T20:09:13.812Z,99.90
2022-11-14T20:11:42.049Z,99.90
2022-11-14T20:14:13.353Z,99.90
2022-11-14T20:16:41.611Z,99.90
2022-11-14T20:19:10.321Z,99.90
2022-11-14T20:21:38.832Z,99.90
2022-11-14T20:24:11.651Z,99.90
2022-11-14T20:26:39.894Z,99.90
2022-11-14T20:29:08.096Z,99.90
2022-11-14T20:31:36.285Z,99.90
2022-11-14T20:34:04.559Z,99.90
2022-11-14T20:36:56.592Z,99.90
2022-11-14T20:39:22.420Z,99.90
2022-11-14T20:41:50.651Z,99.90
2022-11-14T20:44:19.341Z,99.90
2022-11-14T20:46:47.533Z,99.90
2022-11-14T20:49:15.791Z,99.90
2022-11-14T20:51:44.150Z,99.90
2022-11-14T20:54:12.564Z,99.90
2022-11-14T20:56:42.455Z,99.90
2022-11-14T20:59:10.614Z,99.90
2022-11-14T21:01:43.409Z,99.90
2022-11-14T21:04:12.160Z,99.90
2022-11-14T21:06:40.693Z,99.90
2022-11-14T21:09:09.717Z,99.90
2022-11-14T21:11:38.453Z,99.90
2022-11-14T21:14:09.339Z,99.90
2022-11-14T21:16:40.117Z,99.90
2022-11-14T21:19:08.859Z,99.90
2022-11-14T21:21:38.978Z,99.90
2022-11-14T21:24:10.310Z,99.90
2022-11-14T21:26:40.146Z,99.90
2022-11-14T21:29:12.690Z,99.90
2022-11-14T21:31:43.196Z,99.90
2022-11-14T21:34:13.089Z,99.90
2022-11-14T21:36:46.461Z,99.90
2022-11-14T21:39:16.854Z,99.90
2022-11-14T21:41:48.419Z,99.90
2022-11-14T21:44:18.985Z,99.90
2022-11-14T21:46:48.746Z,99.90
2022-11-14T21:49:17.407Z,99.90
2022-11-14T21:51:45.473Z,99.90
2022-11-14T21:54:13.739Z,99.90
2022-11-14T21:56:41.963Z,99.90
2022-11-14T21:59:16.914Z,99.90
2022-11-14T22:02:06.265Z,99.90
2022-11-14T22:04:35.443Z,99.90
2022-11-14T22:07:05.260Z,99.90
2022-11-14T22:09:34.207Z,99.90
2022-11-14T22:12:02.417Z,99.90
2022-11-14T22:14:30.730Z,99.90
2022-11-14T22:17:00.308Z,99.90
2022-11-14T22:19:28.511Z,99.90
2022-11-14T22:21:56.642Z,99.90
2022-11-14T22:24:24.785Z,99.90
2022-11-14T22:26:52.902Z,99.90
2022-11-14T22:29:21.009Z,99.90
2022-11-14T22:31:52.866Z,99.90
2022-11-14T22:34:22.481Z,99.90
2022-11-14T22:36:50.546Z,99.90
2022-11-14T22:39:18.702Z,99.90
2022-11-14T22:41:46.734Z,99.90
2022-11-14T22:44:14.765Z,99.90
2022-11-14T22:46:42.863Z,99.90
2022-11-14T22:49:10.942Z,99.90
2022-11-14T22:51:40.419Z,99.90
2022-11-14T22:54:09.157Z,99.90
2022-11-14T22:56:37.316Z,99.90
2022-11-14T22:59:05.578Z,99.90
2022-11-14T23:01:34.087Z,99.90
2022-11-14T23:04:03.643Z,99.90
2022-11-14T23:06:34.092Z,99.90
2022-11-14T23:09:04.546Z,99.90
2022-11-14T23:11:33.438Z,99.90
2022-11-14T23:14:02.383Z,99.90
2022-11-14T23:16:32.768Z,99.90
2022-11-14T23:19:02.778Z,99.90
2022-11-14T23:21:33.261Z,99.90
2022-11-14T23:24:04.165Z,99.90
2022-11-14T23:26:33.299Z,99.90
2022-11-14T23:29:01.671Z,99.90
2022-11-14T23:31:30.134Z,99.90
2022-11-14T23:33:59.210Z,99.90
2022-11-14T23:36:27.294Z,99.90
2022-11-14T23:38:55.654Z,99.90
2022-11-14T23:41:26.340Z,99.90
2022-11-14T23:43:54.597Z,99.90
2022-11-14T23:46:22.674Z,99.90
2022-11-14T23:48:51.341Z,99.90
2022-11-14T23:51:19.396Z,99.90
2022-11-14T23:53:48.120Z,99.90
2022-11-14T23:56:16.532Z,99.90
2022-11-14T23:58:46.015Z,99.90
